sensor_id;sensor_type;location;lat;lon;timestamp;P1;durP1;ratioP1;P2;durP2;ratioP2
61017;SDS011;48171;51.550;5.434;2023-07-20T00:00:33;20.30;;;7.78;;
61017;SDS011;48171;51.550;5.434;2023-07-20T00:03:14;19.05;;;7.70;;
61017;SDS011;48171;51.550;5.434;2023-07-20T00:05:44;16.02;;;7.15;;
61017;SDS011;48171;51.550;5.434;2023-07-20T00:08:10;16.42;;;7.32;;
61017;SDS011;48171;51.550;5.434;2023-07-20T00:10:35;16.23;;;6.90;;
61017;SDS011;48171;51.550;5.434;2023-07-20T00:13:00;19.60;;;6.40;;
61017;SDS011;48171;51.550;5.434;2023-07-20T00:15:25;14.20;;;6.20;;
61017;SDS011;48171;51.550;5.434;2023-07-20T00:17:51;16.77;;;7.25;;
61017;SDS011;48171;51.550;5.434;2023-07-20T00:20:16;15.02;;;7.05;;
61017;SDS011;48171;51.550;5.434;2023-07-20T00:22:42;15.57;;;7.25;;
61017;SDS011;48171;51.550;5.434;2023-07-20T00:25:07;20.85;;;7.65;;
61017;SDS011;48171;51.550;5.434;2023-07-20T00:27:32;17.90;;;6.70;;
61017;SDS011;48171;51.550;5.434;2023-07-20T00:29:58;18.05;;;7.57;;
61017;SDS011;48171;51.550;5.434;2023-07-20T00:32:23;17.77;;;6.95;;
61017;SDS011;48171;51.550;5.434;2023-07-20T00:34:48;17.10;;;7.30;;
61017;SDS011;48171;51.550;5.434;2023-07-20T00:37:13;18.42;;;6.95;;
61017;SDS011;48171;51.550;5.434;2023-07-20T00:39:39;15.10;;;6.88;;
61017;SDS011;48171;51.550;5.434;2023-07-20T00:42:04;17.27;;;7.32;;
61017;SDS011;48171;51.550;5.434;2023-07-20T00:44:30;22.25;;;7.35;;
61017;SDS011;48171;51.550;5.434;2023-07-20T00:46:55;19.63;;;8.07;;
61017;SDS011;48171;51.550;5.434;2023-07-20T00:49:20;19.50;;;7.20;;
61017;SDS011;48171;51.550;5.434;2023-07-20T00:51:47;20.92;;;7.03;;
61017;SDS011;48171;51.550;5.434;2023-07-20T00:54:13;20.38;;;6.88;;
61017;SDS011;48171;51.550;5.434;2023-07-20T00:56:40;20.98;;;7.53;;
61017;SDS011;48171;51.550;5.434;2023-07-20T00:59:05;17.70;;;7.32;;
61017;SDS011;48171;51.550;5.434;2023-07-20T01:01:30;17.17;;;6.68;;
61017;SDS011;48171;51.550;5.434;2023-07-20T01:03:56;25.20;;;7.70;;
61017;SDS011;48171;51.550;5.434;2023-07-20T01:06:40;17.98;;;7.80;;
61017;SDS011;48171;51.550;5.434;2023-07-20T01:09:17;15.43;;;7.40;;
61017;SDS011;48171;51.550;5.434;2023-07-20T01:11:49;17.52;;;7.45;;
61017;SDS011;48171;51.550;5.434;2023-07-20T01:14:30;20.42;;;7.90;;
61017;SDS011;48171;51.550;5.434;2023-07-20T01:16:57;21.80;;;7.60;;
61017;SDS011;48171;51.550;5.434;2023-07-20T01:19:22;19.88;;;7.97;;
61017;SDS011;48171;51.550;5.434;2023-07-20T01:21:50;17.98;;;7.40;;
61017;SDS011;48171;51.550;5.434;2023-07-20T01:24:34;19.70;;;7.90;;
61017;SDS011;48171;51.550;5.434;2023-07-20T01:30:07;21.58;;;7.70;;
61017;SDS011;48171;51.550;5.434;2023-07-20T01:32:41;17.30;;;8.25;;
61017;SDS011;48171;51.550;5.434;2023-07-20T01:35:10;20.42;;;7.78;;
61017;SDS011;48171;51.550;5.434;2023-07-20T01:37:39;17.75;;;7.82;;
61017;SDS011;48171;51.550;5.434;2023-07-20T01:40:07;22.00;;;8.48;;
61017;SDS011;48171;51.550;5.434;2023-07-20T01:45:09;18.85;;;8.32;;
61017;SDS011;48171;51.550;5.434;2023-07-20T01:47:34;21.55;;;8.10;;
61017;SDS011;48171;51.550;5.434;2023-07-20T01:49:59;23.90;;;8.50;;
61017;SDS011;48171;51.550;5.434;2023-07-20T01:52:25;23.02;;;8.82;;
61017;SDS011;48171;51.550;5.434;2023-07-20T01:54:50;20.08;;;8.35;;
61017;SDS011;48171;51.550;5.434;2023-07-20T01:57:15;22.13;;;8.63;;
61017;SDS011;48171;51.550;5.434;2023-07-20T01:59:41;21.23;;;9.05;;
61017;SDS011;48171;51.550;5.434;2023-07-20T02:02:06;21.27;;;9.05;;
61017;SDS011;48171;51.550;5.434;2023-07-20T02:04:31;23.20;;;8.95;;
61017;SDS011;48171;51.550;5.434;2023-07-20T02:06:57;22.77;;;9.25;;
61017;SDS011;48171;51.550;5.434;2023-07-20T02:09:22;18.00;;;9.02;;
61017;SDS011;48171;51.550;5.434;2023-07-20T02:11:47;23.08;;;8.93;;
61017;SDS011;48171;51.550;5.434;2023-07-20T02:14:13;20.20;;;9.70;;
61017;SDS011;48171;51.550;5.434;2023-07-20T02:16:38;21.70;;;9.90;;
61017;SDS011;48171;51.550;5.434;2023-07-20T02:19:03;22.88;;;10.82;;
61017;SDS011;48171;51.550;5.434;2023-07-20T02:21:31;26.45;;;10.77;;
61017;SDS011;48171;51.550;5.434;2023-07-20T02:23:57;23.00;;;10.40;;
61017;SDS011;48171;51.550;5.434;2023-07-20T02:26:22;24.10;;;11.32;;
61017;SDS011;48171;51.550;5.434;2023-07-20T02:28:48;26.02;;;11.73;;
61017;SDS011;48171;51.550;5.434;2023-07-20T02:31:13;23.08;;;11.52;;
61017;SDS011;48171;51.550;5.434;2023-07-20T02:33:38;26.50;;;12.25;;
61017;SDS011;48171;51.550;5.434;2023-07-20T02:36:04;25.60;;;12.88;;
61017;SDS011;48171;51.550;5.434;2023-07-20T02:38:29;29.80;;;13.07;;
61017;SDS011;48171;51.550;5.434;2023-07-20T02:40:54;26.13;;;12.38;;
61017;SDS011;48171;51.550;5.434;2023-07-20T02:43:20;23.98;;;11.75;;
61017;SDS011;48171;51.550;5.434;2023-07-20T02:45:45;24.63;;;12.30;;
61017;SDS011;48171;51.550;5.434;2023-07-20T02:48:10;21.48;;;11.63;;
61017;SDS011;48171;51.550;5.434;2023-07-20T02:50:35;24.30;;;12.50;;
61017;SDS011;48171;51.550;5.434;2023-07-20T02:53:01;25.40;;;13.27;;
61017;SDS011;48171;51.550;5.434;2023-07-20T02:55:26;24.67;;;12.10;;
61017;SDS011;48171;51.550;5.434;2023-07-20T02:57:52;24.85;;;13.15;;
61017;SDS011;48171;51.550;5.434;2023-07-20T03:00:17;25.58;;;12.98;;
61017;SDS011;48171;51.550;5.434;2023-07-20T03:02:44;24.23;;;12.82;;
61017;SDS011;48171;51.550;5.434;2023-07-20T03:05:12;26.33;;;12.60;;
61017;SDS011;48171;51.550;5.434;2023-07-20T03:07:38;26.02;;;13.15;;
61017;SDS011;48171;51.550;5.434;2023-07-20T03:10:04;25.33;;;13.65;;
61017;SDS011;48171;51.550;5.434;2023-07-20T03:12:32;24.88;;;13.32;;
61017;SDS011;48171;51.550;5.434;2023-07-20T03:14:59;30.00;;;13.77;;
61017;SDS011;48171;51.550;5.434;2023-07-20T03:17:24;31.85;;;14.77;;
61017;SDS011;48171;51.550;5.434;2023-07-20T03:19:49;28.58;;;14.77;;
61017;SDS011;48171;51.550;5.434;2023-07-20T03:22:15;31.65;;;14.88;;
61017;SDS011;48171;51.550;5.434;2023-07-20T03:24:40;30.48;;;14.60;;
61017;SDS011;48171;51.550;5.434;2023-07-20T03:27:05;29.02;;;13.90;;
61017;SDS011;48171;51.550;5.434;2023-07-20T03:29:31;27.60;;;14.73;;
61017;SDS011;48171;51.550;5.434;2023-07-20T03:31:58;28.75;;;13.88;;
61017;SDS011;48171;51.550;5.434;2023-07-20T03:34:24;28.58;;;13.75;;
61017;SDS011;48171;51.550;5.434;2023-07-20T03:36:49;25.55;;;14.15;;
61017;SDS011;48171;51.550;5.434;2023-07-20T03:39:15;30.00;;;13.10;;
61017;SDS011;48171;51.550;5.434;2023-07-20T03:41:40;25.90;;;13.63;;
61017;SDS011;48171;51.550;5.434;2023-07-20T03:44:05;26.63;;;12.50;;
61017;SDS011;48171;51.550;5.434;2023-07-20T03:46:30;25.00;;;12.02;;
61017;SDS011;48171;51.550;5.434;2023-07-20T03:48:56;27.48;;;12.90;;
61017;SDS011;48171;51.550;5.434;2023-07-20T03:51:21;24.83;;;12.60;;
61017;SDS011;48171;51.550;5.434;2023-07-20T03:53:46;27.23;;;12.25;;
61017;SDS011;48171;51.550;5.434;2023-07-20T03:56:12;23.73;;;12.23;;
61017;SDS011;48171;51.550;5.434;2023-07-20T03:58:37;18.98;;;10.80;;
61017;SDS011;48171;51.550;5.434;2023-07-20T04:01:02;21.25;;;12.05;;
61017;SDS011;48171;51.550;5.434;2023-07-20T04:03:28;20.70;;;10.85;;
61017;SDS011;48171;51.550;5.434;2023-07-20T04:05:54;23.80;;;11.63;;
61017;SDS011;48171;51.550;5.434;2023-07-20T04:08:23;19.20;;;11.23;;
61017;SDS011;48171;51.550;5.434;2023-07-20T04:10:49;22.40;;;10.98;;
61017;SDS011;48171;51.550;5.434;2023-07-20T04:13:14;20.27;;;10.20;;
61017;SDS011;48171;51.550;5.434;2023-07-20T04:15:40;20.98;;;10.38;;
61017;SDS011;48171;51.550;5.434;2023-07-20T04:18:05;20.90;;;10.57;;
61017;SDS011;48171;51.550;5.434;2023-07-20T04:20:31;21.45;;;10.45;;
61017;SDS011;48171;51.550;5.434;2023-07-20T04:22:56;21.40;;;10.75;;
61017;SDS011;48171;51.550;5.434;2023-07-20T04:25:21;21.80;;;10.68;;
61017;SDS011;48171;51.550;5.434;2023-07-20T04:27:46;20.90;;;11.90;;
61017;SDS011;48171;51.550;5.434;2023-07-20T04:30:12;21.83;;;11.70;;
61017;SDS011;48171;51.550;5.434;2023-07-20T04:32:38;19.27;;;10.70;;
61017;SDS011;48171;51.550;5.434;2023-07-20T04:35:09;19.08;;;10.30;;
61017;SDS011;48171;51.550;5.434;2023-07-20T04:37:34;18.95;;;9.80;;
61017;SDS011;48171;51.550;5.434;2023-07-20T04:39:59;17.70;;;9.18;;
61017;SDS011;48171;51.550;5.434;2023-07-20T04:42:28;18.67;;;10.07;;
61017;SDS011;48171;51.550;5.434;2023-07-20T04:44:53;20.73;;;10.18;;
61017;SDS011;48171;51.550;5.434;2023-07-20T04:47:19;20.33;;;9.95;;
61017;SDS011;48171;51.550;5.434;2023-07-20T04:49:44;18.05;;;9.50;;
61017;SDS011;48171;51.550;5.434;2023-07-20T04:52:09;16.80;;;9.48;;
61017;SDS011;48171;51.550;5.434;2023-07-20T04:54:35;22.05;;;9.80;;
61017;SDS011;48171;51.550;5.434;2023-07-20T04:57:00;16.95;;;9.45;;
61017;SDS011;48171;51.550;5.434;2023-07-20T04:59:26;24.10;;;11.05;;
61017;SDS011;48171;51.550;5.434;2023-07-20T05:01:51;20.90;;;11.02;;
61017;SDS011;48171;51.550;5.434;2023-07-20T05:04:16;20.75;;;9.98;;
61017;SDS011;48171;51.550;5.434;2023-07-20T05:06:41;23.05;;;11.45;;
61017;SDS011;48171;51.550;5.434;2023-07-20T05:09:07;25.13;;;12.35;;
61017;SDS011;48171;51.550;5.434;2023-07-20T05:11:33;20.88;;;11.23;;
61017;SDS011;48171;51.550;5.434;2023-07-20T05:13:59;23.02;;;11.93;;
61017;SDS011;48171;51.550;5.434;2023-07-20T05:16:25;25.50;;;12.20;;
61017;SDS011;48171;51.550;5.434;2023-07-20T05:18:50;23.88;;;11.55;;
61017;SDS011;48171;51.550;5.434;2023-07-20T05:23:51;27.63;;;12.60;;
61017;SDS011;48171;51.550;5.434;2023-07-20T05:26:16;26.38;;;12.23;;
61017;SDS011;48171;51.550;5.434;2023-07-20T05:28:41;22.95;;;11.60;;
61017;SDS011;48171;51.550;5.434;2023-07-20T05:31:07;27.30;;;13.32;;
61017;SDS011;48171;51.550;5.434;2023-07-20T05:33:32;25.83;;;12.85;;
61017;SDS011;48171;51.550;5.434;2023-07-20T05:35:57;23.38;;;12.13;;
61017;SDS011;48171;51.550;5.434;2023-07-20T05:38:23;25.45;;;12.50;;
61017;SDS011;48171;51.550;5.434;2023-07-20T05:40:48;25.42;;;13.07;;
61017;SDS011;48171;51.550;5.434;2023-07-20T05:43:13;23.20;;;11.88;;
61017;SDS011;48171;51.550;5.434;2023-07-20T05:45:42;24.60;;;12.00;;
61017;SDS011;48171;51.550;5.434;2023-07-20T05:48:09;22.70;;;11.52;;
61017;SDS011;48171;51.550;5.434;2023-07-20T05:50:36;24.45;;;12.55;;
61017;SDS011;48171;51.550;5.434;2023-07-20T05:53:02;21.77;;;11.00;;
61017;SDS011;48171;51.550;5.434;2023-07-20T05:55:27;23.48;;;10.65;;
61017;SDS011;48171;51.550;5.434;2023-07-20T05:57:52;23.75;;;11.23;;
61017;SDS011;48171;51.550;5.434;2023-07-20T06:00:19;22.02;;;10.75;;
61017;SDS011;48171;51.550;5.434;2023-07-20T06:02:51;19.10;;;9.95;;
61017;SDS011;48171;51.550;5.434;2023-07-20T06:05:18;19.48;;;10.43;;
61017;SDS011;48171;51.550;5.434;2023-07-20T06:07:44;22.27;;;10.63;;
61017;SDS011;48171;51.550;5.434;2023-07-20T06:10:09;19.48;;;9.90;;
61017;SDS011;48171;51.550;5.434;2023-07-20T06:12:34;20.67;;;10.27;;
61017;SDS011;48171;51.550;5.434;2023-07-20T06:15:03;19.27;;;9.75;;
61017;SDS011;48171;51.550;5.434;2023-07-20T06:19:55;14.48;;;8.23;;
61017;SDS011;48171;51.550;5.434;2023-07-20T06:22:20;19.67;;;10.00;;
61017;SDS011;48171;51.550;5.434;2023-07-20T06:24:45;16.02;;;9.15;;
61017;SDS011;48171;51.550;5.434;2023-07-20T06:27:10;16.70;;;9.65;;
61017;SDS011;48171;51.550;5.434;2023-07-20T06:29:37;22.48;;;10.13;;
61017;SDS011;48171;51.550;5.434;2023-07-20T06:32:02;16.80;;;9.05;;
61017;SDS011;48171;51.550;5.434;2023-07-20T06:34:28;20.13;;;11.35;;
61017;SDS011;48171;51.550;5.434;2023-07-20T06:36:54;21.88;;;11.43;;
61017;SDS011;48171;51.550;5.434;2023-07-20T06:39:19;23.17;;;11.23;;
61017;SDS011;48171;51.550;5.434;2023-07-20T06:41:44;17.73;;;10.60;;
61017;SDS011;48171;51.550;5.434;2023-07-20T06:44:10;16.33;;;10.38;;
61017;SDS011;48171;51.550;5.434;2023-07-20T06:46:36;22.40;;;11.18;;
61017;SDS011;48171;51.550;5.434;2023-07-20T06:49:01;16.95;;;10.80;;
61017;SDS011;48171;51.550;5.434;2023-07-20T06:51:26;20.30;;;11.30;;
61017;SDS011;48171;51.550;5.434;2023-07-20T06:53:51;19.30;;;10.60;;
61017;SDS011;48171;51.550;5.434;2023-07-20T06:56:17;15.57;;;9.45;;
61017;SDS011;48171;51.550;5.434;2023-07-20T06:58:42;15.10;;;8.85;;
61017;SDS011;48171;51.550;5.434;2023-07-20T07:01:08;18.58;;;10.63;;
61017;SDS011;48171;51.550;5.434;2023-07-20T07:03:33;16.27;;;9.98;;
61017;SDS011;48171;51.550;5.434;2023-07-20T07:05:59;16.27;;;10.13;;
61017;SDS011;48171;51.550;5.434;2023-07-20T07:08:24;16.50;;;9.02;;
61017;SDS011;48171;51.550;5.434;2023-07-20T07:10:49;12.88;;;8.50;;
61017;SDS011;48171;51.550;5.434;2023-07-20T07:13:15;14.02;;;8.73;;
61017;SDS011;48171;51.550;5.434;2023-07-20T07:15:40;13.63;;;8.70;;
61017;SDS011;48171;51.550;5.434;2023-07-20T07:18:05;14.18;;;8.10;;
61017;SDS011;48171;51.550;5.434;2023-07-20T07:20:31;12.35;;;7.07;;
61017;SDS011;48171;51.550;5.434;2023-07-20T07:22:56;12.48;;;7.82;;
61017;SDS011;48171;51.550;5.434;2023-07-20T07:25:22;10.13;;;6.78;;
61017;SDS011;48171;51.550;5.434;2023-07-20T07:27:47;11.45;;;6.55;;
61017;SDS011;48171;51.550;5.434;2023-07-20T07:30:12;10.00;;;6.30;;
61017;SDS011;48171;51.550;5.434;2023-07-20T07:32:38;10.57;;;6.05;;
61017;SDS011;48171;51.550;5.434;2023-07-20T07:35:04;12.02;;;6.47;;
61017;SDS011;48171;51.550;5.434;2023-07-20T07:37:29;10.40;;;5.82;;
61017;SDS011;48171;51.550;5.434;2023-07-20T07:39:55;7.47;;;4.55;;
61017;SDS011;48171;51.550;5.434;2023-07-20T07:42:20;4.65;;;2.90;;
61017;SDS011;48171;51.550;5.434;2023-07-20T07:44:45;4.30;;;2.78;;
61017;SDS011;48171;51.550;5.434;2023-07-20T07:47:11;5.55;;;2.70;;
61017;SDS011;48171;51.550;5.434;2023-07-20T07:49:37;5.80;;;3.00;;
61017;SDS011;48171;51.550;5.434;2023-07-20T07:52:02;5.65;;;2.85;;
61017;SDS011;48171;51.550;5.434;2023-07-20T07:54:28;6.72;;;3.60;;
61017;SDS011;48171;51.550;5.434;2023-07-20T07:56:54;4.70;;;2.97;;
61017;SDS011;48171;51.550;5.434;2023-07-20T07:59:19;6.20;;;4.00;;
61017;SDS011;48171;51.550;5.434;2023-07-20T08:01:44;8.48;;;5.13;;
61017;SDS011;48171;51.550;5.434;2023-07-20T08:04:10;7.63;;;4.90;;
61017;SDS011;48171;51.550;5.434;2023-07-20T08:06:35;9.90;;;5.15;;
61017;SDS011;48171;51.550;5.434;2023-07-20T08:09:00;7.97;;;5.15;;
61017;SDS011;48171;51.550;5.434;2023-07-20T08:11:27;7.00;;;4.00;;
61017;SDS011;48171;51.550;5.434;2023-07-20T08:13:52;6.28;;;4.25;;
61017;SDS011;48171;51.550;5.434;2023-07-20T08:16:17;6.90;;;3.95;;
61017;SDS011;48171;51.550;5.434;2023-07-20T08:18:43;6.57;;;4.00;;
61017;SDS011;48171;51.550;5.434;2023-07-20T08:21:09;7.55;;;4.40;;
61017;SDS011;48171;51.550;5.434;2023-07-20T08:23:34;6.53;;;4.18;;
61017;SDS011;48171;51.550;5.434;2023-07-20T08:25:59;6.35;;;4.05;;
61017;SDS011;48171;51.550;5.434;2023-07-20T08:28:26;8.10;;;4.28;;
61017;SDS011;48171;51.550;5.434;2023-07-20T08:30:51;7.57;;;3.80;;
61017;SDS011;48171;51.550;5.434;2023-07-20T08:33:17;7.45;;;4.50;;
61017;SDS011;48171;51.550;5.434;2023-07-20T08:35:45;6.22;;;3.80;;
61017;SDS011;48171;51.550;5.434;2023-07-20T08:38:11;7.15;;;3.55;;
61017;SDS011;48171;51.550;5.434;2023-07-20T08:40:43;8.27;;;3.97;;
61017;SDS011;48171;51.550;5.434;2023-07-20T08:43:13;5.18;;;3.63;;
61017;SDS011;48171;51.550;5.434;2023-07-20T08:45:41;7.40;;;3.40;;
61017;SDS011;48171;51.550;5.434;2023-07-20T08:48:07;5.88;;;2.83;;
61017;SDS011;48171;51.550;5.434;2023-07-20T08:50:33;5.57;;;3.10;;
61017;SDS011;48171;51.550;5.434;2023-07-20T08:52:59;4.78;;;3.00;;
61017;SDS011;48171;51.550;5.434;2023-07-20T08:55:26;4.70;;;2.75;;
61017;SDS011;48171;51.550;5.434;2023-07-20T08:57:56;4.25;;;3.10;;
61017;SDS011;48171;51.550;5.434;2023-07-20T09:00:23;4.95;;;2.78;;
61017;SDS011;48171;51.550;5.434;2023-07-20T09:02:50;5.75;;;2.80;;
61017;SDS011;48171;51.550;5.434;2023-07-20T09:05:16;4.75;;;2.63;;
61017;SDS011;48171;51.550;5.434;2023-07-20T09:07:42;3.25;;;2.25;;
61017;SDS011;48171;51.550;5.434;2023-07-20T09:10:08;4.95;;;2.35;;
61017;SDS011;48171;51.550;5.434;2023-07-20T09:12:41;3.35;;;2.00;;
61017;SDS011;48171;51.550;5.434;2023-07-20T09:15:08;3.80;;;2.13;;
61017;SDS011;48171;51.550;5.434;2023-07-20T09:17:34;3.20;;;2.10;;
61017;SDS011;48171;51.550;5.434;2023-07-20T09:20:03;4.00;;;2.10;;
61017;SDS011;48171;51.550;5.434;2023-07-20T09:22:33;1.83;;;1.63;;
61017;SDS011;48171;51.550;5.434;2023-07-20T09:24:59;3.85;;;1.73;;
61017;SDS011;48171;51.550;5.434;2023-07-20T09:30:10;3.67;;;2.10;;
61017;SDS011;48171;51.550;5.434;2023-07-20T09:32:45;3.03;;;2.05;;
61017;SDS011;48171;51.550;5.434;2023-07-20T09:35:15;3.15;;;1.88;;
61017;SDS011;48171;51.550;5.434;2023-07-20T09:40:20;3.13;;;1.90;;
61017;SDS011;48171;51.550;5.434;2023-07-20T09:42:46;5.20;;;1.90;;
61017;SDS011;48171;51.550;5.434;2023-07-20T09:45:12;5.38;;;2.40;;
61017;SDS011;48171;51.550;5.434;2023-07-20T09:47:38;4.82;;;2.83;;
61017;SDS011;48171;51.550;5.434;2023-07-20T09:50:04;5.20;;;2.35;;
61017;SDS011;48171;51.550;5.434;2023-07-20T09:52:35;5.82;;;2.38;;
61017;SDS011;48171;51.550;5.434;2023-07-20T09:55:03;3.88;;;2.10;;
61017;SDS011;48171;51.550;5.434;2023-07-20T09:57:29;3.17;;;2.28;;
61017;SDS011;48171;51.550;5.434;2023-07-20T09:59:55;3.20;;;1.70;;
61017;SDS011;48171;51.550;5.434;2023-07-20T10:02:23;2.13;;;1.35;;
61017;SDS011;48171;51.550;5.434;2023-07-20T10:04:55;5.32;;;1.80;;
61017;SDS011;48171;51.550;5.434;2023-07-20T10:07:22;2.88;;;1.70;;
61017;SDS011;48171;51.550;5.434;2023-07-20T10:09:50;5.78;;;1.80;;
61017;SDS011;48171;51.550;5.434;2023-07-20T10:12:17;3.90;;;1.70;;
61017;SDS011;48171;51.550;5.434;2023-07-20T10:14:52;2.97;;;1.70;;
61017;SDS011;48171;51.550;5.434;2023-07-20T10:17:25;5.05;;;1.60;;
61017;SDS011;48171;51.550;5.434;2023-07-20T10:19:52;3.75;;;1.40;;
61017;SDS011;48171;51.550;5.434;2023-07-20T10:22:23;5.72;;;1.50;;
61017;SDS011;48171;51.550;5.434;2023-07-20T10:24:50;6.97;;;1.83;;
61017;SDS011;48171;51.550;5.434;2023-07-20T10:27:19;2.30;;;1.52;;
61017;SDS011;48171;51.550;5.434;2023-07-20T10:29:45;2.88;;;1.58;;
61017;SDS011;48171;51.550;5.434;2023-07-20T10:32:12;4.47;;;1.70;;
61017;SDS011;48171;51.550;5.434;2023-07-20T10:34:38;3.25;;;1.60;;
61017;SDS011;48171;51.550;5.434;2023-07-20T10:37:04;5.50;;;1.60;;
61017;SDS011;48171;51.550;5.434;2023-07-20T10:39:33;1.73;;;1.60;;
61017;SDS011;48171;51.550;5.434;2023-07-20T10:42:07;2.88;;;1.77;;
61017;SDS011;48171;51.550;5.434;2023-07-20T10:44:36;2.30;;;1.60;;
61017;SDS011;48171;51.550;5.434;2023-07-20T10:47:03;3.88;;;1.60;;
61017;SDS011;48171;51.550;5.434;2023-07-20T10:49:33;2.53;;;1.60;;
61017;SDS011;48171;51.550;5.434;2023-07-20T10:52:03;3.67;;;1.80;;
61017;SDS011;48171;51.550;5.434;2023-07-20T10:56:56;2.72;;;1.77;;
61017;SDS011;48171;51.550;5.434;2023-07-20T11:01:47;3.43;;;2.17;;
61017;SDS011;48171;51.550;5.434;2023-07-20T11:04:16;2.20;;;1.50;;
61017;SDS011;48171;51.550;5.434;2023-07-20T11:06:54;3.47;;;1.67;;
61017;SDS011;48171;51.550;5.434;2023-07-20T11:09:22;2.40;;;1.35;;
61017;SDS011;48171;51.550;5.434;2023-07-20T11:11:47;2.13;;;1.40;;
61017;SDS011;48171;51.550;5.434;2023-07-20T11:14:23;4.07;;;1.63;;
61017;SDS011;48171;51.550;5.434;2023-07-20T11:16:50;4.15;;;1.55;;
61017;SDS011;48171;51.550;5.434;2023-07-20T11:24:14;2.05;;;1.58;;
61017;SDS011;48171;51.550;5.434;2023-07-20T11:26:43;2.38;;;1.60;;
61017;SDS011;48171;51.550;5.434;2023-07-20T11:29:11;3.58;;;1.60;;
61017;SDS011;48171;51.550;5.434;2023-07-20T11:31:37;3.53;;;1.88;;
61017;SDS011;48171;51.550;5.434;2023-07-20T11:34:04;2.10;;;1.73;;
61017;SDS011;48171;51.550;5.434;2023-07-20T11:36:30;3.53;;;1.60;;
61017;SDS011;48171;51.550;5.434;2023-07-20T11:38:55;3.58;;;1.88;;
61017;SDS011;48171;51.550;5.434;2023-07-20T11:41:22;4.70;;;1.75;;
61017;SDS011;48171;51.550;5.434;2023-07-20T11:43:47;3.20;;;1.70;;
61017;SDS011;48171;51.550;5.434;2023-07-20T11:46:13;2.60;;;1.52;;
61017;SDS011;48171;51.550;5.434;2023-07-20T11:48:38;3.55;;;1.92;;
61017;SDS011;48171;51.550;5.434;2023-07-20T11:51:05;3.17;;;2.03;;
61017;SDS011;48171;51.550;5.434;2023-07-20T11:53:30;2.88;;;1.70;;
61017;SDS011;48171;51.550;5.434;2023-07-20T11:55:57;4.95;;;1.90;;
61017;SDS011;48171;51.550;5.434;2023-07-20T11:58:23;3.20;;;1.90;;
61017;SDS011;48171;51.550;5.434;2023-07-20T12:00:48;4.20;;;2.13;;
61017;SDS011;48171;51.550;5.434;2023-07-20T12:03:14;4.78;;;2.30;;
61017;SDS011;48171;51.550;5.434;2023-07-20T12:05:39;4.72;;;1.80;;
61017;SDS011;48171;51.550;5.434;2023-07-20T12:08:04;2.10;;;1.60;;
61017;SDS011;48171;51.550;5.434;2023-07-20T12:10:30;2.70;;;1.83;;
61017;SDS011;48171;51.550;5.434;2023-07-20T12:13:00;2.33;;;1.77;;
61017;SDS011;48171;51.550;5.434;2023-07-20T12:15:28;2.60;;;1.80;;
61017;SDS011;48171;51.550;5.434;2023-07-20T12:17:58;2.58;;;1.88;;
61017;SDS011;48171;51.550;5.434;2023-07-20T12:22:58;3.50;;;1.88;;
61017;SDS011;48171;51.550;5.434;2023-07-20T12:28:10;2.88;;;2.10;;
61017;SDS011;48171;51.550;5.434;2023-07-20T12:30:37;4.88;;;2.30;;
61017;SDS011;48171;51.550;5.434;2023-07-20T12:33:04;2.92;;;1.70;;
61017;SDS011;48171;51.550;5.434;2023-07-20T12:35:30;3.90;;;2.00;;
61017;SDS011;48171;51.550;5.434;2023-07-20T12:37:56;4.10;;;2.28;;
61017;SDS011;48171;51.550;5.434;2023-07-20T12:40:21;5.00;;;2.10;;
61017;SDS011;48171;51.550;5.434;2023-07-20T12:42:46;2.50;;;1.92;;
61017;SDS011;48171;51.550;5.434;2023-07-20T12:45:12;1.92;;;1.65;;
61017;SDS011;48171;51.550;5.434;2023-07-20T12:47:38;4.35;;;2.25;;
61017;SDS011;48171;51.550;5.434;2023-07-20T12:50:04;4.45;;;2.25;;
61017;SDS011;48171;51.550;5.434;2023-07-20T12:52:31;3.30;;;2.30;;
61017;SDS011;48171;51.550;5.434;2023-07-20T12:54:56;6.85;;;2.70;;
61017;SDS011;48171;51.550;5.434;2023-07-20T12:57:22;4.28;;;2.67;;
61017;SDS011;48171;51.550;5.434;2023-07-20T12:59:47;4.30;;;2.35;;
61017;SDS011;48171;51.550;5.434;2023-07-20T13:02:13;3.10;;;2.30;;
61017;SDS011;48171;51.550;5.434;2023-07-20T13:04:38;5.38;;;2.50;;
61017;SDS011;48171;51.550;5.434;2023-07-20T13:07:03;5.88;;;2.85;;
61017;SDS011;48171;51.550;5.434;2023-07-20T13:09:29;4.40;;;2.78;;
61017;SDS011;48171;51.550;5.434;2023-07-20T13:11:54;3.53;;;2.50;;
61017;SDS011;48171;51.550;5.434;2023-07-20T13:14:19;6.90;;;2.88;;
61017;SDS011;48171;51.550;5.434;2023-07-20T13:16:44;5.13;;;2.70;;
61017;SDS011;48171;51.550;5.434;2023-07-20T13:19:10;4.45;;;3.25;;
61017;SDS011;48171;51.550;5.434;2023-07-20T13:21:35;7.43;;;2.95;;
61017;SDS011;48171;51.550;5.434;2023-07-20T13:24:00;6.32;;;2.90;;
61017;SDS011;48171;51.550;5.434;2023-07-20T13:26:26;5.85;;;2.72;;
61017;SDS011;48171;51.550;5.434;2023-07-20T13:28:51;4.38;;;2.70;;
61017;SDS011;48171;51.550;5.434;2023-07-20T13:31:17;3.90;;;2.70;;
61017;SDS011;48171;51.550;5.434;2023-07-20T13:33:42;5.38;;;3.03;;
61017;SDS011;48171;51.550;5.434;2023-07-20T13:36:08;5.70;;;3.40;;
61017;SDS011;48171;51.550;5.434;2023-07-20T13:38:33;7.88;;;3.20;;
61017;SDS011;48171;51.550;5.434;2023-07-20T13:40:58;4.70;;;2.90;;
61017;SDS011;48171;51.550;5.434;2023-07-20T13:43:24;4.40;;;2.65;;
61017;SDS011;48171;51.550;5.434;2023-07-20T13:45:50;4.13;;;2.70;;
61017;SDS011;48171;51.550;5.434;2023-07-20T13:48:15;6.72;;;3.10;;
61017;SDS011;48171;51.550;5.434;2023-07-20T13:50:42;5.15;;;3.05;;
61017;SDS011;48171;51.550;5.434;2023-07-20T13:53:07;4.43;;;2.45;;
61017;SDS011;48171;51.550;5.434;2023-07-20T13:55:32;4.15;;;3.20;;
61017;SDS011;48171;51.550;5.434;2023-07-20T13:58:01;6.05;;;3.03;;
61017;SDS011;48171;51.550;5.434;2023-07-20T14:00:26;6.50;;;3.65;;
61017;SDS011;48171;51.550;5.434;2023-07-20T14:02:55;6.53;;;3.53;;
61017;SDS011;48171;51.550;5.434;2023-07-20T14:05:20;5.22;;;3.28;;
61017;SDS011;48171;51.550;5.434;2023-07-20T14:07:46;5.60;;;3.85;;
61017;SDS011;48171;51.550;5.434;2023-07-20T14:10:12;6.20;;;3.03;;
61017;SDS011;48171;51.550;5.434;2023-07-20T14:12:37;3.53;;;2.75;;
61017;SDS011;48171;51.550;5.434;2023-07-20T14:15:03;4.93;;;2.90;;
61017;SDS011;48171;51.550;5.434;2023-07-20T14:17:29;4.82;;;2.90;;
61017;SDS011;48171;51.550;5.434;2023-07-20T14:19:55;4.53;;;3.08;;
61017;SDS011;48171;51.550;5.434;2023-07-20T14:22:20;4.72;;;3.00;;
61017;SDS011;48171;51.550;5.434;2023-07-20T14:24:45;6.18;;;3.10;;
61017;SDS011;48171;51.550;5.434;2023-07-20T14:27:10;4.65;;;3.33;;
61017;SDS011;48171;51.550;5.434;2023-07-20T14:29:36;5.95;;;3.50;;
61017;SDS011;48171;51.550;5.434;2023-07-20T14:32:01;6.18;;;3.05;;
61017;SDS011;48171;51.550;5.434;2023-07-20T14:34:27;4.80;;;3.05;;
61017;SDS011;48171;51.550;5.434;2023-07-20T14:36:52;5.53;;;3.55;;
61017;SDS011;48171;51.550;5.434;2023-07-20T14:39:18;6.35;;;3.42;;
61017;SDS011;48171;51.550;5.434;2023-07-20T14:41:44;5.28;;;3.08;;
61017;SDS011;48171;51.550;5.434;2023-07-20T14:44:09;6.97;;;3.92;;
61017;SDS011;48171;51.550;5.434;2023-07-20T14:46:35;4.63;;;3.47;;
61017;SDS011;48171;51.550;5.434;2023-07-20T14:49:00;3.95;;;2.90;;
61017;SDS011;48171;51.550;5.434;2023-07-20T14:51:26;5.60;;;3.35;;
61017;SDS011;48171;51.550;5.434;2023-07-20T14:53:56;5.45;;;3.55;;
61017;SDS011;48171;51.550;5.434;2023-07-20T14:56:22;9.73;;;3.90;;
61017;SDS011;48171;51.550;5.434;2023-07-20T14:58:47;6.88;;;2.90;;
61017;SDS011;48171;51.550;5.434;2023-07-20T15:01:12;7.50;;;3.50;;
61017;SDS011;48171;51.550;5.434;2023-07-20T15:03:38;6.63;;;3.05;;